Time;durP1;ratioP1;P1;durP2;ratioP2;P2;SDS_P1;SDS_P2;PMS_P1;PMS_P2;Temp;Humidity;BMP_temperature;BMP_pressure;BME280_temperature;BME280_humidity;BME280_pressure;Samples;Min_cycle;Max_cycle;Signal;HPM_P1;HPM_P2
2022/05/10 00:00:21;;;;;;;10.57;7.18;;;;;;;;;;4838129;29;20038;-81
2022/05/10 00:02:51;;;;;;;9.52;7.30;;;;;;;;;;4840617;29;20084;-87
2022/05/10 00:05:43;;;;;;;9.57;7.57;;;;;;;;;;4846674;29;20503;-89
2022/05/10 00:08:12;;;;;;;11.07;7.85;;;;;;;;;;4849344;29;20575;-89
2022/05/10 00:10:38;;;;;;;9.38;7.40;;;;;;;;;;4853143;29;20484;-80
2022/05/10 00:13:05;;;;;;;11.05;7.40;;;;;;;;;;4854879;29;20047;-89
2022/05/10 00:15:31;;;;;;;9.75;7.43;;;;;;;;;;4852673;29;20037;-80
2022/05/10 00:17:57;;;;;;;8.68;6.93;;;;;;;;;;4854807;29;20029;-88
2022/05/10 00:20:25;;;;;;;8.90;7.20;;;;;;;;;;4840878;29;20041;-80
2022/05/10 00:22:51;;;;;;;10.05;8.02;;;;;;;;;;4831472;29;20176;-86
2022/05/10 00:25:21;;;;;;;9.02;7.40;;;;;;;;;;4849707;29;20147;-80
2022/05/10 00:27:47;;;;;;;9.63;7.45;;;;;;;;;;4847356;29;20033;-81
2022/05/10 00:30:12;;;;;;;11.13;7.80;;;;;;;;;;4838045;29;20025;-87
2022/05/10 00:32:39;;;;;;;9.70;7.55;;;;;;;;;;4851513;29;20058;-80
2022/05/10 00:35:10;;;;;;;11.27;8.05;;;;;;;;;;4850946;29;20484;-88
2022/05/10 00:37:36;;;;;;;10.93;8.23;;;;;;;;;;4855418;29;20033;-89
2022/05/10 00:40:01;;;;;;;9.80;7.47;;;;;;;;;;4849509;29;20034;-85
2022/05/10 00:42:37;;;;;;;9.52;7.72;;;;;;;;;;4842387;29;20037;-88
2022/05/10 00:45:08;;;;;;;10.50;8.02;;;;;;;;;;4851789;29;20037;-81
2022/05/10 00:48:01;;;;;;;9.65;7.70;;;;;;;;;;4851282;29;20033;-86
2022/05/10 00:50:32;;;;;;;9.25;7.90;;;;;;;;;;4839929;29;20449;-80
2022/05/10 00:53:23;;;;;;;13.55;8.95;;;;;;;;;;4839112;29;20033;-87
2022/05/10 00:56:01;;;;;;;12.95;8.93;;;;;;;;;;4848242;29;20037;-88
2022/05/10 00:58:52;;;;;;;10.07;7.95;;;;;;;;;;4852980;29;20471;-80
2022/05/10 01:01:25;;;;;;;10.38;8.63;;;;;;;;;;4852672;29;20491;-86
2022/05/10 01:04:01;;;;;;;13.35;9.05;;;;;;;;;;4837992;29;20037;-89
2022/05/10 01:06:43;;;;;;;11.48;8.80;;;;;;;;;;4849481;29;20038;-90
2022/05/10 01:09:15;;;;;;;10.73;8.10;;;;;;;;;;4851132;29;20169;-80
2022/05/10 01:12:05;;;;;;;10.50;8.50;;;;;;;;;;4852782;29;20033;-81
2022/05/10 01:14:55;;;;;;;11.75;8.75;;;;;;;;;;4833292;29;20300;-80
2022/05/10 01:17:20;;;;;;;13.23;8.80;;;;;;;;;;4853001;29;20108;-85
2022/05/10 01:19:46;;;;;;;10.75;8.77;;;;;;;;;;4848861;29;20116;-87
2022/05/10 01:22:30;;;;;;;12.23;8.57;;;;;;;;;;4848126;29;20093;-88
2022/05/10 01:25:20;;;;;;;13.50;8.60;;;;;;;;;;4850669;29;20084;-81
2022/05/10 01:28:16;;;;;;;12.75;8.68;;;;;;;;;;4836690;29;20037;-80
2022/05/10 01:30:42;;;;;;;11.70;8.63;;;;;;;;;;4833334;29;20084;-79
2022/05/10 01:33:32;;;;;;;11.20;8.65;;;;;;;;;;4837608;29;20026;-84
2022/05/10 01:36:03;;;;;;;12.60;9.38;;;;;;;;;;4836272;29;20037;-88
2022/05/10 01:38:54;;;;;;;13.73;9.52;;;;;;;;;;4840867;29;20025;-79
2022/05/10 01:41:34;;;;;;;14.57;9.82;;;;;;;;;;4847447;29;20033;-87
2022/05/10 01:44:03;;;;;;;11.55;9.02;;;;;;;;;;4855403;29;20033;-88
2022/05/10 01:46:30;;;;;;;13.27;9.82;;;;;;;;;;4853587;29;20037;-87
2022/05/10 01:49:08;;;;;;;14.30;10.02;;;;;;;;;;4855442;29;20129;-79
2022/05/10 01:51:43;;;;;;;14.30;9.82;;;;;;;;;;4839586;29;20477;-80
2022/05/10 01:54:34;;;;;;;18.48;11.60;;;;;;;;;;4841562;29;20040;-87
2022/05/10 01:56:59;;;;;;;17.23;11.60;;;;;;;;;;4855219;29;20476;-80
2022/05/10 01:59:25;;;;;;;21.40;12.77;;;;;;;;;;4856988;29;20053;-79
2022/05/10 02:01:50;;;;;;;19.25;12.38;;;;;;;;;;4842295;29;20029;-80
2022/05/10 02:04:21;;;;;;;19.30;12.40;;;;;;;;;;4836333;29;20462;-80
2022/05/10 02:06:53;;;;;;;16.80;11.60;;;;;;;;;;4854910;29;20036;-81
2022/05/10 02:09:21;;;;;;;17.25;11.45;;;;;;;;;;4851725;29;20029;-79
2022/05/10 02:11:51;;;;;;;16.73;10.90;;;;;;;;;;4843609;29;20444;-87
2022/05/10 02:14:27;;;;;;;13.93;10.32;;;;;;;;;;4844607;29;20022;-88
2022/05/10 02:17:02;;;;;;;16.50;10.13;;;;;;;;;;4854735;29;20027;-79
2022/05/10 02:19:35;;;;;;;16.40;10.82;;;;;;;;;;4840895;29;20402;-80
2022/05/10 02:22:08;;;;;;;14.55;10.32;;;;;;;;;;4850267;29;20029;-86
2022/05/10 02:24:55;;;;;;;14.48;10.65;;;;;;;;;;4837787;29;20144;-87
2022/05/10 02:27:26;;;;;;;15.05;9.80;;;;;;;;;;4836208;29;20037;-80
2022/05/10 02:29:58;;;;;;;14.70;10.40;;;;;;;;;;4836632;29;20185;-87
2022/05/10 02:35:48;;;;;;;13.23;10.18;;;;;;;;;;4818788;29;20042;-89
2022/05/10 02:38:24;;;;;;;12.68;9.98;;;;;;;;;;4851423;29;20048;-80
2022/05/10 02:40:51;;;;;;;14.93;10.60;;;;;;;;;;4836525;29;21365;-86
2022/05/10 02:43:24;;;;;;;15.25;10.00;;;;;;;;;;4852883;29;20041;-80
2022/05/10 02:45:50;;;;;;;15.55;10.27;;;;;;;;;;4849748;29;20072;-80
2022/05/10 02:48:21;;;;;;;15.07;11.23;;;;;;;;;;4850540;29;20068;-80
2022/05/10 02:50:47;;;;;;;14.07;10.23;;;;;;;;;;4838122;29;20026;-80
2022/05/10 02:53:12;;;;;;;15.38;10.75;;;;;;;;;;4852430;29;20057;-86
2022/05/10 02:55:56;;;;;;;16.17;10.50;;;;;;;;;;4839548;29;20377;-80
2022/05/10 02:58:31;;;;;;;15.07;11.38;;;;;;;;;;4836099;29;20108;-86
2022/05/10 03:01:14;;;;;;;15.15;10.95;;;;;;;;;;4849390;29;20053;-86
2022/05/10 03:03:40;;;;;;;14.35;10.43;;;;;;;;;;4839244;29;20079;-86
2022/05/10 03:06:06;;;;;;;18.67;11.13;;;;;;;;;;4850854;29;20049;-86
2022/05/10 03:08:31;;;;;;;14.95;10.80;;;;;;;;;;4855489;29;20429;-88
2022/05/10 03:10:57;;;;;;;16.02;11.05;;;;;;;;;;4858290;29;20084;-81
2022/05/10 03:13:22;;;;;;;16.38;11.13;;;;;;;;;;4842506;29;20029;-88
2022/05/10 03:15:47;;;;;;;18.13;11.63;;;;;;;;;;4852043;29;20034;-79
2022/05/10 03:18:13;;;;;;;16.00;10.75;;;;;;;;;;4835867;29;20029;-87
2022/05/10 03:20:38;;;;;;;17.40;11.55;;;;;;;;;;4854957;29;20037;-81
2022/05/10 03:23:04;;;;;;;16.25;11.45;;;;;;;;;;4854467;29;20048;-86
2022/05/10 03:25:33;;;;;;;17.60;11.73;;;;;;;;;;4847519;29;20033;-84
2022/05/10 03:28:00;;;;;;;16.63;11.75;;;;;;;;;;4837391;29;20049;-88
2022/05/10 03:30:30;;;;;;;16.65;11.68;;;;;;;;;;4852259;29;20049;-80
2022/05/10 03:32:55;;;;;;;15.80;11.30;;;;;;;;;;4845124;29;20303;-79
2022/05/10 03:35:21;;;;;;;16.30;10.82;;;;;;;;;;4849417;29;20036;-88
2022/05/10 03:37:47;;;;;;;17.92;11.48;;;;;;;;;;4836974;29;20544;-79
2022/05/10 03:40:12;;;;;;;15.38;11.65;;;;;;;;;;4850990;29;20092;-89
2022/05/10 03:42:49;;;;;;;18.25;11.23;;;;;;;;;;4848566;29;20067;-85
2022/05/10 03:45:18;;;;;;;17.25;11.15;;;;;;;;;;4835382;29;20789;-81
2022/05/10 03:47:45;;;;;;;16.77;10.52;;;;;;;;;;4851053;29;20029;-80
2022/05/10 03:50:12;;;;;;;16.83;10.48;;;;;;;;;;4849227;29;20477;-80
2022/05/10 03:52:39;;;;;;;18.17;10.77;;;;;;;;;;4851836;29;20081;-79
2022/05/10 03:55:06;;;;;;;16.33;10.93;;;;;;;;;;4838545;29;20030;-79
2022/05/10 03:57:31;;;;;;;16.08;10.20;;;;;;;;;;4836525;29;20033;-79
2022/05/10 03:59:56;;;;;;;15.05;10.02;;;;;;;;;;4857432;29;20034;-80
2022/05/10 04:02:21;;;;;;;14.15;9.25;;;;;;;;;;4835514;29;20429;-80
2022/05/10 04:04:47;;;;;;;12.57;9.18;;;;;;;;;;4839013;29;20065;-81
2022/05/10 04:07:14;;;;;;;13.27;9.32;;;;;;;;;;4851947;29;20107;-79
2022/05/10 04:09:39;;;;;;;16.25;10.25;;;;;;;;;;4837490;29;20033;-80
2022/05/10 04:12:05;;;;;;;14.20;10.43;;;;;;;;;;4837019;29;20556;-79
2022/05/10 04:14:30;;;;;;;14.57;9.55;;;;;;;;;;4850546;29;20425;-85
2022/05/10 04:16:56;;;;;;;14.57;9.40;;;;;;;;;;4847878;29;20071;-80
2022/05/10 04:19:21;;;;;;;15.95;10.27;;;;;;;;;;4852608;29;20040;-81
2022/05/10 04:21:49;;;;;;;14.98;9.75;;;;;;;;;;4849964;29;20037;-86
2022/05/10 04:24:14;;;;;;;12.55;9.40;;;;;;;;;;4852562;29;20033;-80
2022/05/10 04:26:40;;;;;;;14.40;9.73;;;;;;;;;;4847049;29;20045;-80
2022/05/10 04:29:05;;;;;;;14.55;9.13;;;;;;;;;;4834769;29;20044;-87
2022/05/10 04:31:30;;;;;;;13.18;9.27;;;;;;;;;;4836583;29;21132;-80
2022/05/10 04:33:56;;;;;;;15.95;9.45;;;;;;;;;;4853583;29;20495;-86
2022/05/10 04:36:23;;;;;;;17.02;9.48;;;;;;;;;;4849813;29;20036;-83
2022/05/10 04:38:49;;;;;;;14.15;9.65;;;;;;;;;;4832932;29;20037;-88
2022/05/10 04:41:27;;;;;;;15.60;9.52;;;;;;;;;;4848175;29;20480;-84
2022/05/10 04:44:07;;;;;;;13.32;9.93;;;;;;;;;;4832465;29;20038;-80
2022/05/10 04:46:37;;;;;;;17.75;10.25;;;;;;;;;;4851033;29;20029;-87
2022/05/10 04:49:04;;;;;;;15.00;9.43;;;;;;;;;;4835106;29;20033;-80
2022/05/10 04:51:30;;;;;;;14.82;9.50;;;;;;;;;;4840006;29;20086;-79
2022/05/10 04:53:56;;;;;;;14.25;10.10;;;;;;;;;;4836654;29;20046;-79
2022/05/10 04:56:21;;;;;;;13.95;10.50;;;;;;;;;;4839188;29;20041;-86
2022/05/10 04:58:47;;;;;;;15.60;9.90;;;;;;;;;;4840327;29;20040;-86
2022/05/10 05:01:15;;;;;;;15.48;10.43;;;;;;;;;;4854481;29;20025;-80
2022/05/10 05:03:46;;;;;;;15.07;10.57;;;;;;;;;;4852607;29;20033;-86
2022/05/10 05:06:12;;;;;;;17.63;9.48;;;;;;;;;;4849712;29;20037;-86
2022/05/10 05:08:37;;;;;;;17.90;10.63;;;;;;;;;;4833905;29;20037;-80
2022/05/10 05:11:03;;;;;;;14.52;9.25;;;;;;;;;;4838193;29;20497;-85
2022/05/10 05:13:29;;;;;;;15.85;10.05;;;;;;;;;;4852964;29;20029;-79
2022/05/10 05:15:54;;;;;;;15.18;10.35;;;;;;;;;;4845309;29;20032;-85
2022/05/10 05:18:20;;;;;;;16.38;10.52;;;;;;;;;;4845484;29;20113;-81
2022/05/10 05:20:45;;;;;;;16.80;11.25;;;;;;;;;;4842175;29;20363;-79
2022/05/10 05:23:12;;;;;;;16.70;10.85;;;;;;;;;;4849791;29;20574;-80
2022/05/10 05:25:39;;;;;;;17.63;11.02;;;;;;;;;;4856281;29;20616;-81
2022/05/10 05:28:05;;;;;;;15.63;10.18;;;;;;;;;;4839136;29;20026;-80
2022/05/10 05:30:31;;;;;;;17.15;10.77;;;;;;;;;;4852100;29;20029;-87
2022/05/10 05:32:56;;;;;;;15.80;10.35;;;;;;;;;;4841124;29;20046;-80
2022/05/10 05:35:21;;;;;;;16.00;10.00;;;;;;;;;;4841937;29;20120;-80
2022/05/10 05:37:47;;;;;;;17.20;10.88;;;;;;;;;;4843690;29;20034;-80
2022/05/10 05:40:15;;;;;;;18.77;11.77;;;;;;;;;;4851163;29;20029;-86
2022/05/10 05:42:41;;;;;;;18.33;11.05;;;;;;;;;;4839586;29;20035;-86
2022/05/10 05:45:08;;;;;;;19.33;11.57;;;;;;;;;;4852465;29;20033;-81
2022/05/10 05:47:34;;;;;;;18.05;12.18;;;;;;;;;;4849368;29;20041;-80
2022/05/10 05:49:59;;;;;;;17.33;11.90;;;;;;;;;;4854086;29;20025;-87
2022/05/10 05:52:26;;;;;;;17.23;11.73;;;;;;;;;;4842756;29;20029;-79
2022/05/10 05:54:53;;;;;;;19.05;12.43;;;;;;;;;;4845055;29;20572;-80
2022/05/10 05:57:20;;;;;;;19.63;11.52;;;;;;;;;;4839300;29;20113;-86
2022/05/10 05:59:46;;;;;;;19.92;11.23;;;;;;;;;;4854907;29;20832;-80
2022/05/10 06:02:14;;;;;;;21.83;11.95;;;;;;;;;;4848324;29;20480;-86
2022/05/10 06:04:39;;;;;;;20.02;12.57;;;;;;;;;;4851499;29;20037;-86
2022/05/10 06:07:05;;;;;;;18.90;11.57;;;;;;;;;;4856510;29;20229;-80
2022/05/10 06:09:31;;;;;;;16.48;11.32;;;;;;;;;;4838852;29;20033;-81
2022/05/10 06:11:56;;;;;;;17.10;12.18;;;;;;;;;;4838878;29;20034;-80
2022/05/10 06:14:21;;;;;;;18.05;12.05;;;;;;;;;;4843077;29;20025;-84
2022/05/10 06:16:47;;;;;;;17.98;11.82;;;;;;;;;;4841051;29;21969;-86
2022/05/10 06:19:13;;;;;;;17.10;11.80;;;;;;;;;;4853875;29;20026;-80
2022/05/10 06:21:40;;;;;;;17.48;12.15;;;;;;;;;;4831655;29;20049;-87
2022/05/10 06:24:10;;;;;;;19.13;11.95;;;;;;;;;;4852475;29;20033;-81
2022/05/10 06:26:36;;;;;;;15.77;11.50;;;;;;;;;;4853609;29;20543;-86
2022/05/10 06:29:01;;;;;;;19.80;11.70;;;;;;;;;;4841542;29;20120;-80
2022/05/10 06:31:30;;;;;;;15.93;11.50;;;;;;;;;;4838354;29;20117;-79
2022/05/10 06:33:56;;;;;;;17.05;12.27;;;;;;;;;;4837113;29;20137;-89
2022/05/10 06:36:21;;;;;;;15.95;11.85;;;;;;;;;;4850717;29;20034;-86
2022/05/10 06:38:47;;;;;;;17.63;11.18;;;;;;;;;;4828344;29;20369;-88
2022/05/10 06:41:12;;;;;;;16.45;11.70;;;;;;;;;;4839009;29;20483;-84
2022/05/10 06:43:38;;;;;;;15.13;11.38;;;;;;;;;;4838412;29;20044;-81
2022/05/10 06:46:17;;;;;;;13.75;10.75;;;;;;;;;;4843053;29;20029;-80
2022/05/10 06:48:45;;;;;;;18.00;11.23;;;;;;;;;;4837792;29;20029;-81
2022/05/10 06:51:12;;;;;;;15.38;11.32;;;;;;;;;;4839984;29;20551;-81
2022/05/10 06:53:37;;;;;;;15.07;10.93;;;;;;;;;;4852904;29;20048;-85
2022/05/10 06:56:04;;;;;;;15.60;11.32;;;;;;;;;;4847800;29;20049;-80
2022/05/10 06:58:29;;;;;;;14.40;10.77;;;;;;;;;;4837079;29;20033;-82
2022/05/10 07:00:55;;;;;;;14.95;10.27;;;;;;;;;;4850270;29;20034;-80
2022/05/10 07:03:28;;;;;;;14.10;10.32;;;;;;;;;;4851726;29;20425;-90
2022/05/10 07:05:54;;;;;;;12.07;10.40;;;;;;;;;;4850976;29;20488;-85
2022/05/10 07:08:29;;;;;;;15.07;10.43;;;;;;;;;;4841491;29;20030;-88
2022/05/10 07:10:55;;;;;;;12.43;9.68;;;;;;;;;;4855527;29;20063;-88
2022/05/10 07:13:24;;;;;;;12.73;10.10;;;;;;;;;;4852956;29;20033;-81
2022/05/10 07:15:50;;;;;;;12.95;9.45;;;;;;;;;;4856301;29;20518;-88
2022/05/10 07:18:16;;;;;;;13.38;10.30;;;;;;;;;;4859164;29;20392;-81
2022/05/10 07:20:43;;;;;;;15.70;10.40;;;;;;;;;;4858610;29;20032;-80
2022/05/10 07:23:10;;;;;;;12.63;9.25;;;;;;;;;;4856056;29;20492;-80
2022/05/10 07:25:37;;;;;;;11.98;10.02;;;;;;;;;;4844432;29;20037;-89
2022/05/10 07:28:06;;;;;;;13.18;10.23;;;;;;;;;;4855014;29;20396;-80
2022/05/10 07:30:41;;;;;;;12.05;10.10;;;;;;;;;;4854830;29;20030;-85
2022/05/10 07:33:11;;;;;;;11.82;9.15;;;;;;;;;;4849922;29;20061;-89
2022/05/10 07:38:43;;;;;;;10.60;8.95;;;;;;;;;;4852941;29;20518;-81
2022/05/10 07:41:12;;;;;;;10.63;8.48;;;;;;;;;;4854236;29;20116;-82
2022/05/10 07:43:39;;;;;;;10.07;8.52;;;;;;;;;;4850063;29;20064;-86
2022/05/10 07:46:06;;;;;;;18.08;7.15;;;;;;;;;;4849459;29;20036;-86
2022/05/10 07:48:31;;;;;;;9.23;7.00;;;;;;;;;;4835798;29;20713;-83
2022/05/10 07:50:57;;;;;;;9.25;7.15;;;;;;;;;;4847550;29;20033;-89
2022/05/10 07:53:22;;;;;;;7.78;6.90;;;;;;;;;;4839053;29;20049;-80
2022/05/10 07:55:48;;;;;;;9.90;7.40;;;;;;;;;;4852912;29;20026;-86
2022/05/10 07:58:14;;;;;;;8.32;7.30;;;;;;;;;;4839111;29;20575;-82
2022/05/10 08:00:42;;;;;;;8.77;6.78;;;;;;;;;;4848892;29;20120;-86
2022/05/10 08:03:13;;;;;;;8.30;6.75;;;;;;;;;;4840270;29;20026;-88
2022/05/10 08:05:39;;;;;;;9.07;6.82;;;;;;;;;;4849311;29;20061;-86
2022/05/10 08:08:05;;;;;;;7.90;6.40;;;;;;;;;;4847356;29;20061;-88
2022/05/10 08:10:30;;;;;;;8.90;6.32;;;;;;;;;;4852963;29;20041;-81
2022/05/10 08:12:56;;;;;;;7.80;5.97;;;;;;;;;;4837696;29;20129;-89
2022/05/10 08:15:21;;;;;;;12.13;6.60;;;;;;;;;;4851118;29;20400;-80
2022/05/10 08:17:47;;;;;;;10.05;6.47;;;;;;;;;;4835288;29;20492;-82
2022/05/10 08:20:13;;;;;;;7.75;5.97;;;;;;;;;;4840274;29;20037;-86
2022/05/10 08:22:38;;;;;;;9.63;6.47;;;;;;;;;;4848794;29;20033;-85
2022/05/10 08:25:05;;;;;;;11.73;6.38;;;;;;;;;;4846721;29;20391;-81
2022/05/10 08:27:30;;;;;;;9.07;5.93;;;;;;;;;;4847345;29;20036;-81
2022/05/10 08:29:56;;;;;;;9.40;6.47;;;;;;;;;;4850901;29;20034;-87
2022/05/10 08:32:21;;;;;;;9.05;6.50;;;;;;;;;;4846692;29;20081;-81
2022/05/10 08:34:46;;;;;;;7.78;5.88;;;;;;;;;;4843990;29;20407;-81
2022/05/10 08:37:12;;;;;;;8.35;6.20;;;;;;;;;;4849244;29;20074;-81
2022/05/10 08:39:37;;;;;;;8.30;6.10;;;;;;;;;;4835560;29;20484;-85
2022/05/10 08:42:19;;;;;;;7.97;6.00;;;;;;;;;;4850850;29;20040;-85
2022/05/10 08:44:54;;;;;;;8.00;5.97;;;;;;;;;;4835181;29;20025;-82
2022/05/10 08:47:19;;;;;;;10.82;6.30;;;;;;;;;;4847785;29;20086;-87
2022/05/10 08:50:08;;;;;;;6.93;6.20;;;;;;;;;;4847184;29;20038;-85
2022/05/10 08:52:38;;;;;;;7.55;6.20;;;;;;;;;;4838421;29;20060;-80
2022/05/10 08:55:06;;;;;;;7.93;5.68;;;;;;;;;;4850215;29;20437;-85
2022/05/10 08:57:49;;;;;;;9.90;6.18;;;;;;;;;;4839238;29;20046;-82
2022/05/10 09:00:26;;;;;;;7.88;5.70;;;;;;;;;;4850574;29;20407;-82
2022/05/10 09:02:55;;;;;;;8.50;5.43;;;;;;;;;;4836809;29;20037;-86
2022/05/10 09:05:27;;;;;;;13.70;5.90;;;;;;;;;;4837526;29;20128;-86
2022/05/10 09:08:26;;;;;;;6.80;5.38;;;;;;;;;;4848717;29;20485;-86
2022/05/10 09:10:55;;;;;;;7.95;6.15;;;;;;;;;;4839654;29;20036;-87
2022/05/10 09:13:24;;;;;;;8.35;5.72;;;;;;;;;;4855169;29;20037;-82
2022/05/10 09:16:00;;;;;;;7.13;5.47;;;;;;;;;;4838685;29;20033;-85
2022/05/10 09:18:29;;;;;;;6.63;5.32;;;;;;;;;;4852854;29;20374;-81
2022/05/10 09:21:12;;;;;;;9.65;5.55;;;;;;;;;;4854593;29;20465;-88
2022/05/10 09:24:13;;;;;;;8.70;6.13;;;;;;;;;;4850882;29;20484;-84
2022/05/10 09:26:44;;;;;;;7.35;5.43;;;;;;;;;;4839419;29;20033;-86
2022/05/10 09:29:17;;;;;;;8.52;4.65;;;;;;;;;;4836339;29;20034;-82
2022/05/10 09:34:46;;;;;;;7.35;5.22;;;;;;;;;;4849599;29;20132;-82
2022/05/10 09:37:34;;;;;;;7.50;4.90;;;;;;;;;;4835197;29;20037;-86
2022/05/10 09:40:07;;;;;;;6.28;5.10;;;;;;;;;;4833837;29;20046;-86
2022/05/10 09:42:41;;;;;;;6.07;4.90;;;;;;;;;;4841671;29;20469;-87
2022/05/10 09:45:15;;;;;;;7.32;5.20;;;;;;;;;;4847985;29;20053;-82
2022/05/10 09:47:58;;;;;;;6.70;5.32;;;;;;;;;;4849875;29;20033;-80
2022/05/10 09:50:34;;;;;;;;;;;;;;;;;;4842975;29;20408;-87
2022/05/10 09:53:27;;;;;;;8.85;5.18;;;;;;;;;;4849404;29;19931;-87
2022/05/10 09:56:12;;;;;;;7.63;5.10;;;;;;;;;;4834942;29;20038;-86
2022/05/10 09:58:58;;;;;;;6.25;5.20;;;;;;;;;;4846634;29;20037;-82
2022/05/10 10:02:04;;;;;;;6.85;5.07;;;;;;;;;;4839521;29;20503;-81
2022/05/10 10:04:33;;;;;;;8.07;5.10;;;;;;;;;;4850541;29;20116;-82
2022/05/10 10:07:24;;;;;;;7.22;5.00;;;;;;;;;;4852274;29;20037;-86
2022/05/10 10:09:53;;;;;;;18.17;5.70;;;;;;;;;;4849847;29;20189;-87
2022/05/10 10:12:34;;;;;;;6.65;5.05;;;;;;;;;;4842031;29;20051;-82
2022/05/10 10:15:28;;;;;;;8.23;5.10;;;;;;;;;;4839204;29;20034;-88
2022/05/10 10:18:03;;;;;;;7.55;5.10;;;;;;;;;;4856341;29;20029;-86
2022/05/10 10:20:41;;;;;;;7.88;4.78;;;;;;;;;;4833954;29;20021;-85
2022/05/10 10:23:40;;;;;;;6.38;4.75;;;;;;;;;;4839639;29;20036;-81
2022/05/10 10:26:29;;;;;;;6.43;4.40;;;;;;;;;;4852619;29;20040;-85
2022/05/10 10:29:18;;;;;;;7.35;4.15;;;;;;;;;;4850654;29;20034;-86
2022/05/10 10:31:52;;;;;;;7.78;4.68;;;;;;;;;;4842436;29;20048;-80
2022/05/10 10:34:35;;;;;;;7.45;4.30;;;;;;;;;;4855101;29;20032;-87
2022/05/10 10:37:28;;;;;;;6.55;4.65;;;;;;;;;;4847321;29;20114;-82
2022/05/10 10:40:14;;;;;;;5.78;3.92;;;;;;;;;;4854736;29;20361;-81
2022/05/10 10:43:07;;;;;;;6.85;4.60;;;;;;;;;;4842876;29;20037;-86
2022/05/10 10:45:48;;;;;;;7.30;4.67;;;;;;;;;;4853377;29;20580;-90
2022/05/10 10:48:28;;;;;;;7.82;4.07;;;;;;;;;;4850428;29;20366;-86
2022/05/10 10:50:54;;;;;;;5.70;4.18;;;;;;;;;;4842367;29;20033;-86
2022/05/10 10:53:23;;;;;;;6.53;4.93;;;;;;;;;;4859501;29;20131;-82
2022/05/10 10:55:54;;;;;;;5.65;4.38;;;;;;;;;;4856219;29;20037;-81
2022/05/10 10:58:38;;;;;;;7.75;4.47;;;;;;;;;;4855121;29;20037;-81
2022/05/10 11:01:22;;;;;;;6.65;4.57;;;;;;;;;;4854931;29;20034;-89
2022/05/10 11:04:16;;;;;;;6.88;4.55;;;;;;;;;;4856008;29;20022;-83
2022/05/10 11:06:50;;;;;;;7.15;4.53;;;;;;;;;;4857669;29;20030;-83
2022/05/10 11:09:21;;;;;;;7.22;4.95;;;;;;;;;;4854205;29;20196;-90
2022/05/10 11:12:00;;;;;;;6.97;5.10;;;;;;;;;;4839319;29;20310;-88
2022/05/10 11:14:34;;;;;;;5.97;4.35;;;;;;;;;;4838855;29;20038;-88
2022/05/10 11:17:08;;;;;;;6.45;4.32;;;;;;;;;;4836887;29;20034;-88
2022/05/10 11:20:11;;;;;;;5.80;4.50;;;;;;;;;;4856955;29;20136;-89
2022/05/10 11:22:42;;;;;;;6.00;4.28;;;;;;;;;;4854151;29;20038;-82
2022/05/10 11:25:39;;;;;;;6.40;4.07;;;;;;;;;;4836421;29;20045;-83
2022/05/10 11:28:34;;;;;;;6.13;4.50;;;;;;;;;;4854681;29;20120;-83
2022/05/10 11:31:18;;;;;;;7.05;4.50;;;;;;;;;;4843277;29;20120;-83
2022/05/10 11:33:56;;;;;;;5.63;4.40;;;;;;;;;;4841984;29;20057;-84
2022/05/10 11:36:44;;;;;;;8.23;4.20;;;;;;;;;;4843416;29;20025;-82
2022/05/10 11:39:36;;;;;;;6.07;4.60;;;;;;;;;;4859457;29;20035;-90
2022/05/10 11:42:32;;;;;;;7.33;4.50;;;;;;;;;;4840934;29;20451;-83
2022/05/10 11:45:27;;;;;;;5.43;4.30;;;;;;;;;;4841234;29;20531;-89
2022/05/10 11:48:06;;;;;;;8.82;4.47;;;;;;;;;;4838581;29;20448;-87
2022/05/10 11:51:42;;;;;;;6.05;4.40;;;;;;;;;;4850090;29;20523;-88
2022/05/10 11:54:50;;;;;;;6.07;4.40;;;;;;;;;;4851213;29;20041;-81
2022/05/10 11:57:25;;;;;;;6.90;3.92;;;;;;;;;;4839287;29;20400;-81
2022/05/10 11:59:51;;;;;;;6.20;4.50;;;;;;;;;;4848104;29;20423;-84
2022/05/10 12:02:46;;;;;;;7.07;4.47;;;;;;;;;;4838609;29;20120;-83
2022/05/10 12:05:29;;;;;;;7.20;4.60;;;;;;;;;;4825831;29;20045;-88
2022/05/10 12:08:01;;;;;;;7.55;4.07;;;;;;;;;;4842122;29;20037;-81
2022/05/10 12:10:40;;;;;;;6.03;3.90;;;;;;;;;;4840171;29;20089;-89
2022/05/10 12:21:19;;;;;;;7.47;4.50;;;;;;;;;;4855155;29;20044;-88
2022/05/10 12:23:00;;;;;;;8.75;4.38;;;;;;;;;;4847288;29;20094;-89
2022/05/10 12:26:00;;;;;;;5.70;3.92;;;;;;;;;;4848219;29;20033;-82
2022/05/10 12:28:58;;;;;;;6.07;4.22;;;;;;;;;;4847871;29;20430;-86
2022/05/10 12:31:32;;;;;;;6.13;4.07;;;;;;;;;;4824175;29;20045;-86
2022/05/10 12:34:03;;;;;;;8.32;4.10;;;;;;;;;;4846363;29;20044;-89
2022/05/10 12:36:33;;;;;;;6.25;3.95;;;;;;;;;;4838056;29;20025;-80
2022/05/10 12:39:30;;;;;;;4.97;3.80;;;;;;;;;;4837179;29;20518;-83
2022/05/10 12:42:00;;;;;;;4.90;3.78;;;;;;;;;;4839610;29;20588;-81
2022/05/10 12:45:32;;;;;;;5.45;3.90;;;;;;;;;;4838201;29;20076;-92
2022/05/10 12:48:39;;;;;;;6.53;4.00;;;;;;;;;;4851916;29;20072;-81
2022/05/10 12:51:29;;;;;;;7.45;3.83;;;;;;;;;;4850931;29;20396;-82
2022/05/10 12:54:36;;;;;;;6.25;4.05;;;;;;;;;;4837172;29;20030;-81
2022/05/10 12:57:07;;;;;;;7.05;4.43;;;;;;;;;;4786610;29;20051;-91
2022/05/10 13:00:03;;;;;;;6.18;4.20;;;;;;;;;;4767357;29;20082;-81
2022/05/10 13:02:37;;;;;;;7.55;4.57;;;;;;;;;;4831117;29;20042;-82
2022/05/10 13:05:07;;;;;;;6.15;4.53;;;;;;;;;;4850497;29;20050;-91
2022/05/10 13:07:56;;;;;;;5.10;3.90;;;;;;;;;;4854759;29;20026;-82
2022/05/10 13:10:23;;;;;;;7.53;4.18;;;;;;;;;;4841778;29;20049;-89
2022/05/10 13:13:05;;;;;;;7.22;4.55;;;;;;;;;;4840253;29;20125;-82
2022/05/10 13:15:31;;;;;;;4.93;4.10;;;;;;;;;;4848833;29;20029;-86
2022/05/10 13:18:12;;;;;;;6.55;4.32;;;;;;;;;;4842089;29;20602;-91
2022/05/10 13:20:45;;;;;;;6.63;4.53;;;;;;;;;;4835328;29;20582;-84
2022/05/10 13:23:10;;;;;;;5.80;4.18;;;;;;;;;;4839205;29;20476;-83
2022/05/10 13:25:40;;;;;;;7.78;4.63;;;;;;;;;;4839805;29;20044;-85
2022/05/10 13:29:22;;;;;;;6.50;4.90;;;;;;;;;;4838870;29;20112;-84
2022/05/10 13:34:49;;;;;;;5.88;4.20;;;;;;;;;;4844259;29;20044;-86
2022/05/10 13:37:25;;;;;;;7.53;4.30;;;;;;;;;;4856725;29;20048;-85
2022/05/10 13:39:51;;;;;;;7.47;4.10;;;;;;;;;;4851237;29;20042;-83
2022/05/10 13:42:17;;;;;;;8.75;4.45;;;;;;;;;;4838856;29;20033;-83
2022/05/10 13:44:44;;;;;;;7.60;4.57;;;;;;;;;;4840613;29;20116;-85
2022/05/10 13:47:42;;;;;;;5.63;4.35;;;;;;;;;;4837400;29;20032;-83
2022/05/10 13:50:26;;;;;;;8.38;4.20;;;;;;;;;;4836843;29;20038;-85
2022/05/10 13:53:18;;;;;;;6.78;3.90;;;;;;;;;;4837162;29;20042;-85
2022/05/10 13:56:04;;;;;;;8.77;3.72;;;;;;;;;;4836780;29;20385;-85
2022/05/10 13:58:33;;;;;;;5.68;4.07;;;;;;;;;;4851988;29;20074;-82
2022/05/10 14:00:59;;;;;;;5.55;3.50;;;;;;;;;;4839652;29;20108;-82
2022/05/10 14:03:25;;;;;;;6.15;3.85;;;;;;;;;;4853724;29;20090;-85
2022/05/10 14:06:43;;;;;;;;;;;;;;;;;;;;;
2022/05/10 14:15:27;;;;;;;6.90;3.80;;;;;;;;;;4759209;29;20133;-84
2022/05/10 14:18:33;;;;;;;;;;;;;;;;;;;;;
2022/05/10 14:21:19;;;;;;;8.43;4.50;;;;;;;;;;4854725;29;20045;-84
2022/05/10 14:24:18;;;;;;;8.98;5.18;;;;;;;;;;4849583;29;20036;-85
2022/05/10 14:30:29;;;;;;;11.00;5.57;;;;;;;;;;4834116;29;20405;-82
2022/05/10 14:33:20;;;;;;;8.63;5.95;;;;;;;;;;4820452;29;20057;-85
2022/05/10 14:36:25;;;;;;;10.40;5.57;;;;;;;;;;4848207;29;20504;-88
2022/05/10 14:38:50;;;;;;;8.02;5.65;;;;;;;;;;4832223;29;20496;-84
2022/05/10 14:41:49;;;;;;;6.72;4.75;;;;;;;;;;4827859;29;20036;-85
2022/05/10 14:44:35;;;;;;;8.27;6.22;;;;;;;;;;4845384;29;20115;-89
2022/05/10 14:47:24;;;;;;;9.48;6.10;;;;;;;;;;4835915;29;20033;-90
2022/05/10 14:49:52;;;;;;;9.65;5.40;;;;;;;;;;4831463;29;20041;-88
2022/05/10 14:52:24;;;;;;;9.80;5.30;;;;;;;;;;4843461;29;20416;-88
2022/05/10 14:54:54;;;;;;;8.65;5.60;;;;;;;;;;4847092;29;20053;-88
2022/05/10 14:57:58;;;;;;;9.00;5.43;;;;;;;;;;4829178;29;20033;-89
2022/05/10 15:00:29;;;;;;;8.30;6.03;;;;;;;;;;4832394;29;20041;-86
2022/05/10 15:03:24;;;;;;;9.98;5.38;;;;;;;;;;4834203;29;20041;-88
2022/05/10 15:05:56;;;;;;;8.05;5.63;;;;;;;;;;4839385;29;20037;-92
2022/05/10 15:08:25;;;;;;;9.15;5.97;;;;;;;;;;4851099;29;20025;-89
2022/05/10 15:10:57;;;;;;;8.18;5.50;;;;;;;;;;4838272;29;20041;-88
2022/05/10 15:13:23;;;;;;;8.00;5.50;;;;;;;;;;4837203;29;20033;-83
2022/05/10 15:16:01;;;;;;;7.25;5.50;;;;;;;;;;4838448;29;20516;-83
2022/05/10 15:21:31;;;;;;;7.80;4.90;;;;;;;;;;4855587;29;20048;-88
2022/05/10 15:23:57;;;;;;;10.43;5.00;;;;;;;;;;4836585;29;20045;-90
2022/05/10 15:26:51;;;;;;;7.80;4.57;;;;;;;;;;4849026;29;20025;-83
2022/05/10 15:29:32;;;;;;;6.43;4.65;;;;;;;;;;4835907;29;20038;-83
2022/05/10 15:31:58;;;;;;;7.45;4.43;;;;;;;;;;4839952;29;20054;-91
2022/05/10 15:34:43;;;;;;;8.07;4.55;;;;;;;;;;4843089;29;20033;-84
2022/05/10 15:37:59;;;;;;;6.78;4.28;;;;;;;;;;4846735;29;20029;-84
2022/05/10 15:40:33;;;;;;;7.10;4.65;;;;;;;;;;4813060;29;20401;-83
2022/05/10 15:43:00;;;;;;;6.90;3.70;;;;;;;;;;4810715;29;20043;-84
2022/05/10 15:45:29;;;;;;;9.10;3.50;;;;;;;;;;4803118;29;20091;-89
2022/05/10 15:47:55;;;;;;;6.88;3.38;;;;;;;;;;4821371;29;20042;-81